Time;durP1;ratioP1;P1;durP2;ratioP2;P2;SDS_P1;SDS_P2;PMS_P1;PMS_P2;Temp;Humidity;BMP_temperature;BMP_pressure;BME280_temperature;BME280_humidity;BME280_pressure;Samples;Min_cycle;Max_cycle;Signal;HPM_P1;HPM_P2
2021/01/31 00:01:36;;;;;;;11.53;7.23;;;0.80;99.90;;;;;;5022145;28;21013;-88
2021/01/31 00:04:03;;;;;;;13.13;7.30;;;0.70;99.90;;;;;;5026129;28;20216;-87
2021/01/31 00:06:29;;;;;;;11.93;7.27;;;0.80;99.90;;;;;;5007176;28;20228;-86
2021/01/31 00:08:56;;;;;;;10.73;7.10;;;0.70;99.90;;;;;;5019857;28;20207;-82
2021/01/31 00:11:22;;;;;;;13.77;7.63;;;0.70;99.90;;;;;;5004953;28;20208;-89
2021/01/31 00:13:48;;;;;;;14.40;7.17;;;0.70;99.90;;;;;;5004393;28;20254;-88
2021/01/31 00:16:15;;;;;;;12.40;7.17;;;0.60;99.90;;;;;;5006740;28;20205;-86
2021/01/31 00:18:41;;;;;;;16.27;8.27;;;0.60;99.90;;;;;;5001919;28;20300;-87
2021/01/31 00:21:07;;;;;;;12.13;7.03;;;0.70;99.90;;;;;;5008386;28;20196;-85
2021/01/31 00:23:34;;;;;;;12.77;7.07;;;0.60;99.90;;;;;;5018861;28;20303;-89
2021/01/31 00:26:15;;;;;;;12.33;7.43;;;0.70;99.90;;;;;;5018398;28;20648;-86
2021/01/31 00:28:43;;;;;;;11.93;7.13;;;0.70;99.90;;;;;;5017460;28;20240;-84
2021/01/31 00:31:09;;;;;;;12.00;6.80;;;0.60;99.90;;;;;;5025271;28;20208;-83
2021/01/31 00:33:35;;;;;;;11.73;6.97;;;0.60;99.90;;;;;;5008176;28;20611;-85
2021/01/31 00:36:02;;;;;;;13.07;8.00;;;0.60;99.90;;;;;;5020024;28;20215;-83
2021/01/31 00:38:28;;;;;;;11.30;6.70;;;0.60;99.90;;;;;;5007620;28;20204;-85
2021/01/31 00:40:55;;;;;;;11.33;6.00;;;0.60;99.90;;;;;;5015187;28;20235;-85
2021/01/31 00:43:22;;;;;;;12.03;7.80;;;0.50;99.90;;;;;;5005512;28;20197;-84
2021/01/31 00:45:50;;;;;;;13.13;7.30;;;0.50;99.90;;;;;;5017681;28;20215;-85
2021/01/31 00:48:16;;;;;;;13.07;7.17;;;0.50;99.90;;;;;;5008833;28;20303;-84
2021/01/31 00:50:42;;;;;;;10.47;7.00;;;0.50;99.90;;;;;;5018100;28;20281;-83
2021/01/31 00:53:10;;;;;;;13.17;8.03;;;0.50;99.90;;;;;;4990945;28;21017;-84
2021/01/31 00:55:36;;;;;;;13.17;7.63;;;0.50;99.90;;;;;;5016670;28;20680;-83
2021/01/31 00:58:03;;;;;;;10.00;6.13;;;0.50;99.90;;;;;;5001064;28;20209;-83
2021/01/31 01:00:33;;;;;;;14.40;7.70;;;0.40;99.90;;;;;;5015299;28;20207;-84
2021/01/31 01:03:01;;;;;;;16.10;8.50;;;0.40;99.90;;;;;;5032600;28;20280;-84
2021/01/31 01:05:28;;;;;;;14.27;6.53;;;0.40;99.90;;;;;;4999854;28;20256;-83
2021/01/31 01:07:55;;;;;;;11.83;6.60;;;0.40;99.90;;;;;;5020543;28;20213;-83
2021/01/31 01:10:25;;;;;;;11.33;7.23;;;0.50;99.90;;;;;;5019797;28;20267;-85
2021/01/31 01:12:52;;;;;;;12.17;6.77;;;0.40;99.90;;;;;;5012992;28;20261;-84
2021/01/31 01:15:24;;;;;;;10.87;6.30;;;0.30;99.90;;;;;;5005011;28;20212;-87
2021/01/31 01:17:51;;;;;;;11.97;7.10;;;0.30;99.90;;;;;;5021436;28;20208;-85
2021/01/31 01:20:17;;;;;;;12.37;7.37;;;0.20;99.90;;;;;;5024830;28;20215;-84
2021/01/31 01:22:44;;;;;;;10.93;6.57;;;0.20;99.90;;;;;;5004394;28;20374;-84
2021/01/31 01:25:12;;;;;;;12.07;7.00;;;0.30;99.90;;;;;;5033789;28;20275;-84
2021/01/31 01:27:39;;;;;;;12.10;7.13;;;0.20;99.90;;;;;;5017789;28;20387;-85
2021/01/31 01:30:08;;;;;;;15.13;7.60;;;0.20;99.90;;;;;;5006300;28;20236;-84
2021/01/31 01:32:35;;;;;;;11.03;7.03;;;0.20;99.90;;;;;;5024208;28;20247;-86
2021/01/31 01:35:01;;;;;;;12.83;7.53;;;0.10;99.90;;;;;;5014933;28;20232;-84
2021/01/31 01:37:27;;;;;;;11.73;7.30;;;0.10;99.90;;;;;;5005652;28;20204;-81
2021/01/31 01:39:53;;;;;;;11.37;7.80;;;0.10;99.90;;;;;;5008604;28;20292;-84
2021/01/31 01:42:20;;;;;;;16.37;7.47;;;0.20;99.90;;;;;;5008522;28;20282;-83
2021/01/31 01:44:46;;;;;;;10.93;6.57;;;0.10;99.90;;;;;;5006861;28;20758;-83
2021/01/31 01:47:20;;;;;;;11.13;7.03;;;-0.10;99.90;;;;;;5017808;28;20598;-84
2021/01/31 01:49:50;;;;;;;16.43;8.63;;;0.00;99.90;;;;;;5019255;28;20306;-82
2021/01/31 01:52:32;;;;;;;13.27;7.87;;;0.00;99.90;;;;;;5019061;28;20309;-84
2021/01/31 01:55:09;;;;;;;14.43;8.00;;;-0.10;99.90;;;;;;5015884;28;20219;-85
2021/01/31 01:58:00;;;;;;;17.40;9.37;;;0.00;99.90;;;;;;5012867;28;20198;-82
2021/01/31 02:00:27;;;;;;;15.03;8.90;;;-0.10;99.90;;;;;;5015197;28;20258;-83
2021/01/31 02:03:08;;;;;;;14.07;7.00;;;0.00;99.90;;;;;;5005618;28;20632;-82
2021/01/31 02:05:36;;;;;;;14.47;8.37;;;0.00;99.90;;;;;;5021708;28;20200;-83
2021/01/31 02:08:04;;;;;;;11.60;7.57;;;0.00;99.90;;;;;;5020422;28;20232;-84
2021/01/31 02:10:30;;;;;;;13.13;7.27;;;-0.10;99.90;;;;;;5015102;28;20251;-85
2021/01/31 02:13:01;;;;;;;15.37;9.00;;;0.00;99.90;;;;;;5009442;28;20250;-81
2021/01/31 02:15:29;;;;;;;15.50;7.67;;;-0.20;99.90;;;;;;5019324;28;20295;-85
2021/01/31 02:18:23;;;;;;;14.93;8.17;;;-0.20;99.90;;;;;;5013285;28;20293;-84
2021/01/31 02:21:04;;;;;;;14.20;7.63;;;-0.10;99.90;;;;;;5020226;28;20273;-84
2021/01/31 02:23:49;;;;;;;12.27;8.00;;;0.00;99.90;;;;;;5052534;28;20678;-84
2021/01/31 02:26:35;;;;;;;14.70;8.33;;;-0.10;99.90;;;;;;5034588;28;20250;-83
2021/01/31 02:29:17;;;;;;;14.83;7.70;;;-0.10;99.90;;;;;;5013326;28;20294;-83
2021/01/31 02:31:46;;;;;;;15.53;8.40;;;0.00;99.90;;;;;;5027091;28;20223;-83
2021/01/31 02:34:31;;;;;;;12.27;7.03;;;-0.10;99.90;;;;;;5017291;28;20221;-83
2021/01/31 02:37:30;;;;;;;13.93;7.10;;;-0.10;99.90;;;;;;5035283;28;20197;-84
2021/01/31 02:40:10;;;;;;;14.07;7.80;;;-0.10;99.90;;;;;;5020433;28;20343;-83
2021/01/31 02:42:55;;;;;;;13.13;8.17;;;-0.10;99.90;;;;;;5019962;28;20229;-82
2021/01/31 02:45:31;;;;;;;12.70;8.03;;;-0.10;99.90;;;;;;5020671;28;20201;-84
2021/01/31 02:48:06;;;;;;;13.17;7.70;;;-0.20;99.90;;;;;;5014709;28;20262;-84
2021/01/31 02:50:58;;;;;;;13.87;7.27;;;-0.20;99.90;;;;;;5020471;28;20207;-85
2021/01/31 02:53:40;;;;;;;13.50;8.27;;;-0.10;99.90;;;;;;5018441;28;20550;-83
2021/01/31 02:56:20;;;;;;;16.47;8.10;;;-0.10;99.90;;;;;;5019010;28;20200;-84
2021/01/31 02:58:55;;;;;;;14.73;8.17;;;-0.10;99.90;;;;;;5017637;28;21234;-83
2021/01/31 03:01:47;;;;;;;15.07;7.83;;;-0.10;99.90;;;;;;5025811;28;20212;-84
2021/01/31 03:04:36;;;;;;;16.20;9.67;;;-0.10;99.90;;;;;;5019836;28;20318;-85
2021/01/31 03:07:17;;;;;;;15.80;9.23;;;-0.40;99.90;;;;;;5017933;28;20257;-82
2021/01/31 03:10:16;;;;;;;14.43;8.47;;;-0.20;99.90;;;;;;5022476;28;20201;-83
2021/01/31 03:12:57;;;;;;;14.00;8.30;;;-0.20;99.90;;;;;;5017263;28;20683;-83
2021/01/31 03:15:28;;;;;;;15.07;8.27;;;-0.20;99.90;;;;;;5018744;28;20243;-83
2021/01/31 03:18:17;;;;;;;13.77;7.83;;;-0.20;99.90;;;;;;5023108;28;20211;-84
2021/01/31 03:21:03;;;;;;;13.27;7.73;;;-0.30;99.90;;;;;;5015216;28;20200;-84
2021/01/31 03:23:43;;;;;;;17.40;8.00;;;-0.20;99.90;;;;;;5019941;28;20238;-85
2021/01/31 03:26:34;;;;;;;12.77;7.37;;;-0.30;99.90;;;;;;5016694;28;20565;-82
2021/01/31 03:29:01;;;;;;;14.80;8.30;;;-0.40;99.90;;;;;;5011398;28;20247;-85
2021/01/31 03:31:29;;;;;;;13.70;8.03;;;-0.40;99.90;;;;;;5021393;28;20216;-83
2021/01/31 03:34:05;;;;;;;16.23;8.50;;;-0.30;99.90;;;;;;5020663;28;20286;-83
2021/01/31 03:36:33;;;;;;;12.10;7.07;;;-0.40;99.90;;;;;;5016741;28;20235;-84
2021/01/31 03:39:02;;;;;;;15.60;7.80;;;-0.50;99.90;;;;;;5016226;28;20204;-84
2021/01/31 03:41:29;;;;;;;13.97;7.83;;;-0.60;99.90;;;;;;5021737;28;20283;-83
2021/01/31 03:43:55;;;;;;;14.73;8.37;;;-0.60;99.90;;;;;;5004860;28;20282;-83
2021/01/31 03:46:36;;;;;;;14.27;8.83;;;-0.50;99.90;;;;;;5017962;28;20203;-86
2021/01/31 03:49:15;;;;;;;15.57;7.87;;;-0.60;99.90;;;;;;5016125;28;20203;-86
2021/01/31 03:51:42;;;;;;;19.03;9.63;;;-0.50;99.90;;;;;;5030878;28;20261;-85
2021/01/31 03:54:10;;;;;;;12.57;7.73;;;-0.50;99.90;;;;;;5006987;28;20232;-85
2021/01/31 03:56:38;;;;;;;13.13;7.70;;;-0.60;99.90;;;;;;5018685;28;20641;-81
2021/01/31 03:59:07;;;;;;;13.97;7.77;;;-0.60;99.90;;;;;;5017455;28;20211;-83
2021/01/31 04:01:37;;;;;;;16.03;8.00;;;-0.60;99.90;;;;;;5007135;28;20208;-86
2021/01/31 04:04:26;;;;;;;15.83;8.77;;;-0.60;99.90;;;;;;5006128;28;20632;-82
2021/01/31 04:06:57;;;;;;;12.63;7.47;;;-0.70;99.90;;;;;;5017397;28;20204;-83
2021/01/31 04:09:25;;;;;;;12.73;8.30;;;-0.60;99.90;;;;;;5024773;28;20200;-83
2021/01/31 04:12:04;;;;;;;15.37;8.07;;;-0.60;99.90;;;;;;5011879;28;20612;-84
2021/01/31 04:14:40;;;;;;;13.70;7.97;;;-0.60;99.90;;;;;;5020968;28;20679;-83
2021/01/31 04:17:07;;;;;;;15.27;8.90;;;-0.70;99.90;;;;;;5016744;28;20230;-84
2021/01/31 04:19:33;;;;;;;14.30;8.27;;;-0.60;99.90;;;;;;4992186;28;20208;-84
2021/01/31 04:21:59;;;;;;;13.97;7.83;;;-0.70;99.90;;;;;;5006186;28;20199;-84
2021/01/31 04:24:26;;;;;;;13.67;7.83;;;-0.70;99.90;;;;;;5007889;28;20211;-83
2021/01/31 04:26:52;;;;;;;14.00;7.83;;;-0.70;99.90;;;;;;5014900;28;20214;-84
2021/01/31 04:29:18;;;;;;;12.87;7.37;;;-0.60;99.90;;;;;;5005735;28;20298;-83
2021/01/31 04:31:45;;;;;;;14.07;7.37;;;-0.60;99.90;;;;;;5010692;28;20211;-84
2021/01/31 04:34:11;;;;;;;15.43;8.17;;;-0.60;99.90;;;;;;5022685;28;20277;-84
2021/01/31 04:36:37;;;;;;;13.67;8.03;;;-0.60;99.90;;;;;;5018668;28;20204;-84
2021/01/31 04:39:05;;;;;;;13.70;7.77;;;-0.60;99.90;;;;;;5014020;28;21200;-82
2021/01/31 04:41:40;;;;;;;15.53;8.83;;;-0.60;99.90;;;;;;5005587;28;20269;-83
2021/01/31 04:44:10;;;;;;;14.37;8.10;;;-0.60;99.90;;;;;;5014892;28;20261;-83
2021/01/31 04:47:03;;;;;;;11.93;7.03;;;-0.60;99.90;;;;;;5014740;28;20212;-82
2021/01/31 04:49:50;;;;;;;14.27;7.87;;;-0.50;99.90;;;;;;5014190;28;20617;-83
2021/01/31 04:52:39;;;;;;;13.50;6.67;;;-0.60;99.90;;;;;;5032822;28;20295;-83
2021/01/31 04:55:27;;;;;;;12.67;7.33;;;-0.80;99.90;;;;;;5051799;28;20299;-83
2021/01/31 04:58:22;;;;;;;14.30;8.37;;;-0.80;99.90;;;;;;5029127;28;20212;-83
2021/01/31 05:01:11;;;;;;;14.13;7.97;;;-0.80;99.90;;;;;;5017373;28;21165;-85
2021/01/31 05:03:53;;;;;;;12.03;6.47;;;-0.70;99.90;;;;;;5017458;28;20205;-84
2021/01/31 05:06:22;;;;;;;13.60;7.47;;;-0.70;99.90;;;;;;5018341;28;20679;-84
2021/01/31 05:08:49;;;;;;;11.37;6.57;;;-0.70;99.90;;;;;;5016314;28;20258;-83
2021/01/31 05:11:35;;;;;;;13.40;7.93;;;-0.70;99.90;;;;;;5016900;28;20263;-83
2021/01/31 05:14:12;;;;;;;11.23;7.23;;;-0.80;99.90;;;;;;5030931;28;20212;-83
2021/01/31 05:16:39;;;;;;;12.80;7.87;;;-0.90;99.90;;;;;;5014634;28;20294;-82
2021/01/31 05:19:10;;;;;;;14.20;7.60;;;-0.90;99.90;;;;;;5013069;28;20641;-83
2021/01/31 05:21:36;;;;;;;16.10;7.57;;;-0.80;99.90;;;;;;5015421;28;20212;-82
2021/01/31 05:24:17;;;;;;;13.10;7.80;;;-0.80;99.90;;;;;;5004803;28;20200;-83
2021/01/31 05:26:58;;;;;;;14.73;7.67;;;-0.90;99.90;;;;;;5018000;28;20768;-83
2021/01/31 05:29:30;;;;;;;13.47;7.93;;;-0.80;99.90;;;;;;5015977;28;20255;-83
2021/01/31 05:32:15;;;;;;;12.70;7.40;;;-0.80;99.90;;;;;;5019165;28;20605;-83
2021/01/31 05:34:48;;;;;;;17.00;7.90;;;-0.90;99.90;;;;;;5030382;28;20276;-84
2021/01/31 05:37:27;;;;;;;12.00;7.10;;;-0.80;99.90;;;;;;5020358;28;20262;-82
2021/01/31 05:40:04;;;;;;;13.50;8.07;;;-0.80;99.90;;;;;;5018597;28;20211;-83
2021/01/31 05:42:32;;;;;;;13.87;7.77;;;-0.80;99.90;;;;;;5016389;28;20290;-82
2021/01/31 05:45:19;;;;;;;13.33;7.33;;;-0.70;99.90;;;;;;5022871;28;20270;-85
2021/01/31 05:47:48;;;;;;;12.83;7.70;;;-0.90;99.90;;;;;;5035076;28;20282;-83
2021/01/31 05:50:29;;;;;;;19.47;8.80;;;-0.90;99.90;;;;;;5021551;28;20615;-84
2021/01/31 05:52:56;;;;;;;14.67;8.20;;;-0.80;99.90;;;;;;5039022;28;20350;-83
2021/01/31 05:55:29;;;;;;;12.37;8.20;;;-0.80;99.90;;;;;;5004188;28;20582;-84
2021/01/31 05:58:18;;;;;;;13.77;8.17;;;-0.80;99.90;;;;;;5015376;28;20660;-84
2021/01/31 06:00:46;;;;;;;11.73;6.30;;;-0.90;99.90;;;;;;5014393;28;20260;-84
2021/01/31 06:03:19;;;;;;;14.13;7.50;;;-1.00;99.90;;;;;;5004057;28;20269;-84
2021/01/31 06:05:45;;;;;;;12.83;7.70;;;-1.00;99.90;;;;;;5008723;28;20762;-84
2021/01/31 06:08:33;;;;;;;14.83;7.50;;;-1.00;99.90;;;;;;5011686;28;20632;-84
2021/01/31 06:11:19;;;;;;;13.23;7.07;;;-1.00;99.90;;;;;;5018572;28;20203;-84
2021/01/31 06:13:48;;;;;;;14.10;7.57;;;-1.00;99.90;;;;;;5016178;28;20253;-83
2021/01/31 06:16:21;;;;;;;13.33;7.43;;;-0.90;99.90;;;;;;5015865;28;20211;-84
2021/01/31 06:19:07;;;;;;;15.57;7.80;;;-1.00;99.90;;;;;;5023448;28;20257;-85
2021/01/31 06:21:39;;;;;;;16.63;8.10;;;-0.90;99.90;;;;;;5023342;28;20216;-83
2021/01/31 06:24:26;;;;;;;15.77;8.00;;;-1.00;99.90;;;;;;5022030;28;20201;-84
2021/01/31 06:26:56;;;;;;;12.97;6.33;;;-1.10;99.90;;;;;;5021209;28;20238;-86
2021/01/31 06:29:35;;;;;;;14.30;7.67;;;-1.10;99.90;;;;;;5023256;28;20256;-84
2021/01/31 06:32:20;;;;;;;13.57;8.20;;;-1.00;99.90;;;;;;5019563;28;20285;-85
2021/01/31 06:34:59;;;;;;;12.17;7.07;;;-1.00;99.90;;;;;;5031383;28;20215;-85
2021/01/31 06:37:30;;;;;;;10.73;6.90;;;-1.00;99.90;;;;;;5018123;28;20305;-85
2021/01/31 06:40:16;;;;;;;14.80;7.57;;;-1.00;99.90;;;;;;5019716;28;20207;-85
2021/01/31 06:43:03;;;;;;;14.17;7.07;;;-1.00;99.90;;;;;;5020639;28;20262;-85
2021/01/31 06:45:51;;;;;;;17.10;8.10;;;-0.90;99.90;;;;;;5015211;28;20214;-82
2021/01/31 06:48:36;;;;;;;16.43;8.20;;;-0.90;99.90;;;;;;5017701;28;20208;-84
2021/01/31 06:51:32;;;;;;;11.27;7.37;;;-1.10;99.90;;;;;;5012927;28;20206;-83
2021/01/31 06:54:45;;;;;;;12.00;7.87;;;-1.20;99.90;;;;;;5023646;28;20764;-84
2021/01/31 06:57:42;;;;;;;14.23;7.67;;;-1.20;99.90;;;;;;5005305;28;20273;-85
2021/01/31 07:00:20;;;;;;;12.27;7.37;;;-1.20;99.90;;;;;;5021872;28;20231;-84
2021/01/31 07:03:24;;;;;;;12.53;7.37;;;-1.20;99.90;;;;;;5034199;28;20601;-85
2021/01/31 07:06:16;;;;;;;12.93;7.00;;;-1.20;99.90;;;;;;5036305;28;20293;-82
2021/01/31 07:08:48;;;;;;;14.03;7.70;;;-1.00;99.90;;;;;;5033901;28;20244;-84
2021/01/31 07:11:35;;;;;;;13.77;8.13;;;-0.90;99.90;;;;;;5017694;28;20284;-82
2021/01/31 07:14:31;;;;;;;13.27;7.30;;;-1.00;99.90;;;;;;5029289;28;20219;-84
2021/01/31 07:17:16;;;;;;;15.07;7.73;;;-1.00;99.90;;;;;;5019595;28;20213;-81
2021/01/31 07:19:56;;;;;;;13.37;7.87;;;-1.00;99.90;;;;;;5030090;28;20189;-84
2021/01/31 07:22:30;;;;;;;12.33;7.90;;;-1.00;99.90;;;;;;5018162;28;20300;-84
2021/01/31 07:25:11;;;;;;;12.07;7.27;;;-1.20;99.90;;;;;;5017122;28;20563;-87
2021/01/31 07:27:43;;;;;;;15.80;8.10;;;-1.20;99.90;;;;;;5031371;28;20258;-85
2021/01/31 07:30:19;;;;;;;13.40;7.00;;;-1.30;99.90;;;;;;5042922;28;20342;-85
2021/01/31 07:33:05;;;;;;;17.13;7.80;;;-1.20;99.90;;;;;;5019969;28;20254;-83
2021/01/31 07:35:38;;;;;;;13.17;6.97;;;-1.10;99.90;;;;;;5022868;28;20335;-85
2021/01/31 07:38:29;;;;;;;12.40;6.83;;;-1.10;99.90;;;;;;5024570;28;20212;-85
2021/01/31 07:40:56;;;;;;;11.93;7.03;;;-1.00;99.90;;;;;;5017057;28;20876;-83
2021/01/31 07:43:27;;;;;;;14.87;7.90;;;-1.10;99.90;;;;;;5002727;28;20290;-87
2021/01/31 07:46:04;;;;;;;15.20;7.70;;;-1.00;99.90;;;;;;5018364;28;20212;-86
2021/01/31 07:48:32;;;;;;;13.67;7.90;;;-0.90;99.90;;;;;;5018486;28;20267;-85
2021/01/31 07:51:01;;;;;;;13.23;7.30;;;-0.80;99.90;;;;;;5031959;28;20219;-84
2021/01/31 07:53:33;;;;;;;14.73;7.40;;;-0.60;99.90;;;;;;5010077;28;20239;-83
2021/01/31 07:56:24;;;;;;;12.90;7.30;;;-0.50;99.90;;;;;;5017453;28;20219;-83
2021/01/31 07:58:52;;;;;;;16.50;7.30;;;-0.30;99.90;;;;;;5019055;28;20267;-76
2021/01/31 08:01:42;;;;;;;11.73;7.43;;;-0.10;99.90;;;;;;5021685;28;20201;-81
2021/01/31 08:04:15;;;;;;;9.80;6.13;;;0.10;99.90;;;;;;5016829;28;20211;-79
2021/01/31 08:06:53;;;;;;;12.90;7.73;;;0.10;99.90;;;;;;5025576;28;20254;-75
2021/01/31 08:09:25;;;;;;;13.40;6.40;;;0.30;99.90;;;;;;5039805;28;20341;-84
2021/01/31 08:11:54;;;;;;;11.53;7.33;;;0.60;99.90;;;;;;5036420;28;20197;-88
2021/01/31 08:14:58;;;;;;;12.90;6.67;;;0.50;99.90;;;;;;5046459;28;20258;-87
2021/01/31 08:17:45;;;;;;;12.07;6.97;;;0.40;99.90;;;;;;5017948;28;20212;-86
2021/01/31 08:20:42;;;;;;;13.17;7.83;;;0.20;99.90;;;;;;5014539;28;20252;-86
2021/01/31 08:23:11;;;;;;;13.90;7.60;;;0.20;99.90;;;;;;5010740;28;20234;-86
2021/01/31 08:26:00;;;;;;;11.80;6.77;;;0.30;99.90;;;;;;5022423;28;20213;-86
2021/01/31 08:28:35;;;;;;;15.70;9.80;;;0.40;99.90;;;;;;5044768;28;20462;-81
2021/01/31 08:31:04;;;;;;;13.03;7.10;;;0.20;99.90;;;;;;5015078;28;20469;-80
2021/01/31 08:33:37;;;;;;;18.40;8.37;;;0.20;99.90;;;;;;5020596;28;20275;-81
2021/01/31 08:36:11;;;;;;;12.10;7.70;;;0.10;99.90;;;;;;5032789;28;20311;-81
2021/01/31 08:38:40;;;;;;;13.83;7.17;;;0.10;99.90;;;;;;5013172;28;20207;-81
2021/01/31 08:41:13;;;;;;;11.33;6.80;;;0.00;99.90;;;;;;5017034;28;20713;-81
2021/01/31 08:43:52;;;;;;;12.03;6.97;;;0.30;99.90;;;;;;5020125;28;20243;-81
2021/01/31 08:46:31;;;;;;;12.57;7.23;;;0.30;99.90;;;;;;5018082;28;20719;-83
2021/01/31 08:49:13;;;;;;;13.10;7.30;;;0.30;99.90;;;;;;5014105;28;20254;-81
2021/01/31 08:51:42;;;;;;;11.17;7.00;;;0.00;99.90;;;;;;5019393;28;20545;-83
2021/01/31 08:54:13;;;;;;;11.00;6.20;;;-0.20;99.90;;;;;;5020731;28;20683;-81
2021/01/31 08:56:46;;;;;;;11.03;7.27;;;0.10;99.90;;;;;;5017432;28;20262;-83
2021/01/31 08:59:23;;;;;;;13.87;7.50;;;0.10;99.90;;;;;;5047939;28;20241;-80
2021/01/31 09:01:58;;;;;;;11.93;7.13;;;0.40;99.90;;;;;;5029062;28;20611;-84
2021/01/31 09:04:26;;;;;;;16.10;7.57;;;0.60;99.90;;;;;;5020351;28;20667;-78
2021/01/31 09:06:53;;;;;;;10.60;6.00;;;0.60;99.90;;;;;;5018008;28;20200;-80
2021/01/31 09:09:30;;;;;;;12.67;7.13;;;0.40;99.90;;;;;;5022465;28;20205;-80
2021/01/31 09:15:44;;;;;;;14.13;7.60;;;0.40;99.90;;;;;;5026259;28;20274;-81
2021/01/31 09:18:24;;;;;;;11.37;7.27;;;0.30;99.90;;;;;;5011354;28;20273;-80
2021/01/31 09:20:51;;;;;;;11.43;7.07;;;0.70;99.90;;;;;;5021658;28;20600;-76
2021/01/31 09:23:34;;;;;;;12.60;7.07;;;1.10;99.90;;;;;;5006048;28;20692;-83
2021/01/31 09:26:03;;;;;;;11.87;6.83;;;1.00;99.90;;;;;;5016695;28;20214;-82
2021/01/31 09:28:31;;;;;;;12.33;7.30;;;0.90;99.90;;;;;;5024177;28;20212;-84
2021/01/31 09:31:01;;;;;;;9.67;6.13;;;0.90;99.90;;;;;;5019020;28;20687;-82
2021/01/31 09:33:38;;;;;;;12.97;7.27;;;0.60;99.90;;;;;;5018762;28;20235;-85
2021/01/31 09:36:17;;;;;;;10.63;6.60;;;0.80;99.90;;;;;;5042373;28;20227;-83
2021/01/31 09:38:49;;;;;;;13.83;7.60;;;1.10;99.90;;;;;;5036758;28;20201;-84
2021/01/31 09:41:19;;;;;;;13.00;7.40;;;1.10;99.90;;;;;;5018121;28;20909;-82
2021/01/31 09:43:51;;;;;;;10.90;6.93;;;0.60;99.90;;;;;;5037658;28;20653;-82
2021/01/31 09:46:21;;;;;;;12.13;7.13;;;0.70;99.90;;;;;;5014372;28;20703;-80
2021/01/31 09:48:49;;;;;;;12.73;7.53;;;0.70;99.90;;;;;;5019304;28;20277;-78
2021/01/31 09:51:26;;;;;;;11.57;6.80;;;0.90;99.90;;;;;;5007435;28;21256;-80
2021/01/31 09:53:52;;;;;;;12.13;6.90;;;1.30;99.90;;;;;;5046963;28;20488;-82
2021/01/31 09:56:41;;;;;;;10.60;7.17;;;1.10;99.90;;;;;;5007956;28;20579;-80
2021/01/31 09:59:24;;;;;;;13.80;7.13;;;1.00;99.90;;;;;;5016039;28;20226;-80
2021/01/31 10:02:00;;;;;;;11.10;6.50;;;1.60;99.90;;;;;;5018871;28;20299;-79
2021/01/31 10:04:27;;;;;;;10.63;6.23;;;2.10;99.90;;;;;;5017241;28;20211;-80
2021/01/31 10:07:03;;;;;;;12.80;7.20;;;2.20;99.90;;;;;;5047098;28;20203;-80
2021/01/31 10:09:32;;;;;;;12.67;6.77;;;2.40;99.90;;;;;;5025893;28;20277;-80
2021/01/31 10:12:22;;;;;;;10.70;6.63;;;1.80;99.90;;;;;;5027451;28;20196;-80
2021/01/31 10:15:10;;;;;;;9.97;6.23;;;1.90;99.90;;;;;;5016259;28;20306;-80
2021/01/31 10:17:44;;;;;;;13.60;6.93;;;2.10;99.90;;;;;;5014093;28;20339;-79
2021/01/31 10:20:35;;;;;;;9.00;6.67;;;2.00;99.90;;;;;;5022919;28;20651;-80
2021/01/31 10:23:15;;;;;;;12.27;7.03;;;2.00;99.90;;;;;;5014967;28;20197;-79
2021/01/31 10:25:56;;;;;;;14.27;9.00;;;2.20;99.90;;;;;;5017732;28;20810;-76
2021/01/31 10:28:30;;;;;;;12.20;7.80;;;2.80;99.90;;;;;;5014951;28;20349;-77
2021/01/31 10:30:58;;;;;;;11.93;6.53;;;3.40;99.90;;;;;;5018973;28;21418;-76
2021/01/31 10:33:47;;;;;;;11.43;7.00;;;3.40;99.90;;;;;;5014951;28;20294;-76
2021/01/31 10:36:16;;;;;;;9.77;6.47;;;3.30;99.90;;;;;;5020076;28;20213;-78
2021/01/31 10:38:44;;;;;;;11.23;6.33;;;3.50;99.90;;;;;;5021110;28;20281;-76
2021/01/31 10:41:11;;;;;;;11.37;6.83;;;3.50;99.90;;;;;;5023506;28;20288;-77
2021/01/31 10:43:37;;;;;;;9.17;6.10;;;3.30;99.90;;;;;;5002736;28;20282;-78
2021/01/31 10:46:05;;;;;;;11.53;6.90;;;3.20;99.90;;;;;;5009008;28;20740;-77
2021/01/31 10:48:31;;;;;;;10.10;6.33;;;3.10;99.90;;;;;;5017694;28;20209;-77
2021/01/31 10:50:57;;;;;;;9.80;6.23;;;3.10;99.90;;;;;;5008288;28;20256;-77
2021/01/31 10:53:24;;;;;;;10.63;6.10;;;3.00;99.90;;;;;;5025181;28;20196;-78
2021/01/31 10:55:50;;;;;;;9.93;6.37;;;3.30;99.90;;;;;;5009396;28;21109;-78
2021/01/31 10:58:16;;;;;;;13.93;6.90;;;3.30;99.90;;;;;;5014597;28;20606;-77
2021/01/31 11:00:43;;;;;;;11.03;6.67;;;3.10;99.90;;;;;;4991329;28;20190;-76
2021/01/31 11:03:09;;;;;;;11.43;7.17;;;2.90;99.90;;;;;;5013579;28;20241;-77
2021/01/31 11:05:36;;;;;;;13.30;6.80;;;3.10;99.90;;;;;;5030071;28;20296;-76
2021/01/31 11:08:03;;;;;;;12.47;6.43;;;3.30;99.90;;;;;;5011359;28;20574;-76
2021/01/31 11:10:29;;;;;;;10.97;6.10;;;3.70;99.90;;;;;;5017319;28;20648;-76
2021/01/31 11:12:56;;;;;;;10.33;6.77;;;4.00;99.90;;;;;;5010340;28;20209;-76
2021/01/31 11:15:25;;;;;;;9.90;5.83;;;4.10;99.90;;;;;;5010547;28;20253;-75
2021/01/31 11:17:53;;;;;;;9.60;6.10;;;4.10;99.90;;;;;;5032360;28;20625;-76
2021/01/31 11:20:19;;;;;;;11.33;7.37;;;3.90;99.90;;;;;;5015916;28;20204;-76
2021/01/31 11:22:45;;;;;;;9.80;5.80;;;4.40;99.90;;;;;;5044438;28;20274;-76
2021/01/31 11:25:11;;;;;;;14.23;7.03;;;4.50;99.90;;;;;;5006170;28;20224;-75
2021/01/31 11:27:38;;;;;;;12.73;6.90;;;4.80;99.90;;;;;;5006423;28;20236;-75
2021/01/31 11:30:05;;;;;;;9.90;6.43;;;4.40;99.90;;;;;;5011165;28;20241;-75
2021/01/31 11:32:31;;;;;;;11.83;6.47;;;4.40;99.90;;;;;;5030762;28;20227;-75
2021/01/31 11:34:58;;;;;;;10.57;6.53;;;4.30;99.90;;;;;;5017599;28;20275;-76
2021/01/31 11:37:24;;;;;;;14.20;7.03;;;4.40;99.90;;;;;;5007483;28;20200;-76
2021/01/31 11:39:50;;;;;;;9.00;6.50;;;4.40;99.90;;;;;;5030695;28;20265;-76
2021/01/31 11:42:17;;;;;;;13.43;6.70;;;4.90;99.90;;;;;;5017952;28;20236;-76
2021/01/31 11:44:44;;;;;;;11.90;7.27;;;4.80;99.90;;;;;;5009042;28;20197;-76
2021/01/31 11:47:10;;;;;;;11.57;7.00;;;4.80;99.90;;;;;;5017939;28;20298;-76
2021/01/31 11:49:36;;;;;;;11.10;6.27;;;4.80;99.90;;;;;;5006357;28;20286;-74
2021/01/31 11:52:03;;;;;;;10.77;6.80;;;4.80;99.90;;;;;;5007004;28;20255;-74
2021/01/31 11:54:29;;;;;;;11.67;7.17;;;5.00;99.90;;;;;;5013677;28;20662;-75
2021/01/31 11:56:56;;;;;;;9.80;6.77;;;4.90;99.90;;;;;;5007220;28;20216;-76
2021/01/31 11:59:26;;;;;;;9.70;6.00;;;4.80;99.90;;;;;;4998073;28;20206;-75
2021/01/31 12:01:52;;;;;;;11.80;6.83;;;5.10;99.90;;;;;;5013457;28;21117;-75
2021/01/31 12:04:19;;;;;;;13.67;6.50;;;5.10;99.90;;;;;;5008316;28;20282;-78
2021/01/31 12:06:45;;;;;;;9.77;5.57;;;5.20;99.90;;;;;;5015922;28;20198;-75
2021/01/31 12:09:11;;;;;;;9.03;5.70;;;5.20;99.90;;;;;;5015069;28;20247;-76
2021/01/31 12:11:38;;;;;;;9.03;6.57;;;5.50;99.90;;;;;;4989871;28;20319;-77
2021/01/31 12:14:05;;;;;;;9.53;5.70;;;5.40;99.90;;;;;;5016679;28;21149;-76
2021/01/31 12:16:31;;;;;;;10.30;6.50;;;5.30;99.90;;;;;;5018610;28;20299;-76
2021/01/31 12:18:58;;;;;;;12.37;6.23;;;5.60;99.90;;;;;;5007574;28;20209;-76
2021/01/31 12:21:25;;;;;;;10.77;5.70;;;5.40;99.90;;;;;;5005864;28;20205;-77
2021/01/31 12:23:52;;;;;;;8.70;5.87;;;5.50;99.90;;;;;;5005633;28;20200;-76
2021/01/31 12:26:19;;;;;;;9.93;5.57;;;4.90;99.90;;;;;;5014545;28;20206;-76
2021/01/31 12:28:46;;;;;;;12.80;6.60;;;4.70;99.90;;;;;;5001066;28;20241;-76
2021/01/31 12:31:12;;;;;;;9.83;6.60;;;4.80;99.90;;;;;;5010028;28;20195;-75
2021/01/31 12:33:39;;;;;;;10.37;5.87;;;4.70;99.90;;;;;;4999310;28;20723;-77
2021/01/31 12:36:09;;;;;;;13.53;6.67;;;4.60;99.90;;;;;;5002809;28;20245;-75
2021/01/31 12:38:36;;;;;;;10.70;6.03;;;4.70;99.90;;;;;;5008096;28;20200;-75
2021/01/31 12:41:02;;;;;;;10.37;6.20;;;5.10;99.90;;;;;;5012306;28;20673;-75
2021/01/31 12:43:29;;;;;;;8.80;6.00;;;5.10;99.90;;;;;;5021556;28;20229;-76
2021/01/31 12:45:55;;;;;;;13.03;6.30;;;5.10;99.90;;;;;;5019683;28;21651;-76
2021/01/31 12:48:21;;;;;;;8.83;6.30;;;5.30;99.90;;;;;;5017818;28;20202;-75
2021/01/31 12:50:48;;;;;;;11.13;5.97;;;5.60;99.90;;;;;;5010481;28;20213;-77
2021/01/31 12:53:14;;;;;;;8.50;5.23;;;5.80;99.90;;;;;;5011209;28;20527;-76
2021/01/31 12:55:41;;;;;;;17.30;6.00;;;5.40;99.90;;;;;;5001542;28;20913;-76
2021/01/31 12:58:07;;;;;;;10.17;5.97;;;5.00;99.90;;;;;;5024104;28;20862;-76
2021/01/31 13:00:33;;;;;;;9.73;6.13;;;5.00;99.90;;;;;;5002045;28;20566;-77
2021/01/31 13:03:01;;;;;;;11.47;6.10;;;5.00;99.90;;;;;;4999780;28;20487;-76
2021/01/31 13:05:30;;;;;;;9.67;6.57;;;4.90;99.90;;;;;;5031213;28;20205;-77
2021/01/31 13:08:02;;;;;;;10.50;6.57;;;5.30;99.90;;;;;;5012222;28;20221;-76
2021/01/31 13:10:29;;;;;;;9.03;6.00;;;5.10;99.90;;;;;;5017420;28;20264;-76
2021/01/31 13:12:57;;;;;;;9.63;5.67;;;4.90;99.90;;;;;;5017017;28;20588;-76
2021/01/31 13:15:24;;;;;;;8.67;5.77;;;4.90;99.90;;;;;;5005221;28;20284;-77
2021/01/31 13:17:54;;;;;;;11.47;6.50;;;4.90;99.90;;;;;;5005240;28;20568;-76
2021/01/31 13:20:21;;;;;;;8.97;5.17;;;5.00;99.90;;;;;;5001590;28;20200;-76